Aviation Digital Data Service (ADDS)

Output produced by METARs form (0254 UTC 21 June 2018)
found at http://www.aviationweather.gov/adds/metars/
 
ESTA 210250Z AUTO 25019G30KT 9999 SCT019/// BKN024/// OVC028/// 14/10 Q1007